Aeroporto :







RITROVATECI SU...

 
LOGIN :

Iscrizione | Disclaimer

   EN    FR    IT 

 









Sommario :    VFR   VFR Marginale   IFR   IFR Intensivo   IFR Molto Intensivo
Visibilità : 
Base nubi : 
>= 8 km
>= 3000ft
5 / 8 km
1000 / 3000 ft
1500m / 5 km
500 / 1000 ft
800 / 1500m
200 / 500 ft
< 800m
< 200 ft
Simboli :   Temporali  Nebbia  Neve Forte  Precipitazioni Forti  Vento > 20 kt






- Altitudine del aeroporto : 235 ft
- Codice IATA : MAR


SVMC - La Chinita Int.

ULTIMO METAR :
  • 091802Z AUTO NIL

METARs OBSOLETI :
  • 091702Z AUTO NIL
  • 091602Z AUTO NIL

TAF TAF SVMC
Valido dal 09 a 18 ore il 10 a 18 ore UTC


091600Z 0918/1018 18009KT 9999 BKN020 TX34/19Z TN25/08Z
TEMPO 0918/0922 16002KT 9000 -DZ BKN016



MetMap, La meteo Aeronautica in un colpo d'occhio ! - Copyright ORBIFLY Dicembre 2007 - Disclaimer

ORBIFLY MET'MAP TEAM :

Programmazione e sviluppo : Alexandra Zaïnal
Concezione : Baudouin d'Aumeries
Aiuto per la programmazione : Marc-Olivier Méhu
Supporto tecnico e logistico : Manuel Goepfert
Aiuto per la traduzione : Arnaldo La Scala

Contatto : metmap@orbifly.com




FONTI E CREDITI :

   NOAA